Latest Weather Observations for Perisher Valley

IDN60801

Issued at 8:35 pm EDT Wednesday 26 November 2014 (issued every 30 minutes, with the page automatically refreshed every 10 minutes)

About weather observations | Map of weather stations | Latest weather observations for NSW | Other Formats
Station Details ID: 071075 Name: PERISHER VALLEY AWS Lat: -36.41 Lon: 148.41 Height: 1738.0 m
Data from the previous 72 hours. | See also: Recent months at Perisher Valley
Date/Time
EDT
Temp
°C
App
Temp
°C
Dew
Point
Rel
Hum
%
Delta-T
°C
Wind Press
QNH
hPa
Press
MSL
hPa
Rain
since 9 am
mm
Dir
 
Spd
km/h
Gust
km/h
Spd
kts
Gust
kts
26/08:30pm 7.0 5.3 5.9 93 0.5 ESE 4 7 2 4 - - 0.0
26/08:00pm 7.8 6.6 6.4 91 0.7 SE 2 6 1 3 - - 0.0
26/07:30pm 8.9 7.7 6.3 84 1.3 ENE 2 11 1 6 - - 0.0
26/07:00pm 10.2 9.3 6.2 76 2.1 CALM 0 4 0 2 - - 0.0
26/06:30pm 10.4 8.4 6.4 76 2.1 ENE 6 15 3 8 - - 0.0
26/06:00pm 11.4 9.0 4.4 62 3.5 ESE 6 24 3 13 - - 0.0
26/05:30pm 11.8 10.2 2.3 52 4.5 CALM 0 2 0 1 - - 0.0
26/05:00pm 13.2 10.3 2.4 48 5.2 SW 7 20 4 11 - - 0.0
26/04:30pm 13.3 10.5 3.1 50 5.0 SW 7 20 4 11 - - 0.0
26/04:00pm 13.4 10.7 3.8 52 4.8 W 7 19 4 10 - - 0.0
26/03:30pm 13.3 10.3 3.9 53 4.7 W 9 24 5 13 - - 0.0
26/03:00pm 12.9 9.8 3.6 53 4.6 WNW 9 19 5 10 - - 0.0
26/02:30pm 13.1 9.2 3.2 51 4.9 W 13 24 7 13 - - 0.0
26/02:00pm 12.6 8.7 3.6 54 4.5 W 13 32 7 17 - - 0.0
26/01:30pm 12.3 8.3 0.7 45 5.4 WNW 11 24 6 13 - - 0.0
26/01:00pm 11.4 6.5 1.9 52 4.5 W 17 30 9 16 - - 0.0
26/12:30pm 11.3 8.1 0.7 48 4.9 W 7 22 4 12 - - 0.0
26/12:00pm 10.5 6.5 0.5 50 4.6 WNW 11 24 6 13 - - 0.0
26/11:30am 8.8 4.7 -0.2 53 4.0 W 11 28 6 15 - - 0.0
26/11:00am 7.8 4.0 1.6 65 2.8 W 11 24 6 13 - - 0.0
26/10:30am 7.7 3.2 2.0 67 2.6 W 15 32 8 17 - - 0.0
26/10:00am 7.3 1.8 0.7 63 2.9 W 19 33 10 18 - - 0.0
26/09:30am 6.9 1.2 0.4 63 2.9 W 20 28 11 15 - - 0.0
26/09:00am 7.0 3.0 0.5 63 2.9 W 11 20 6 11 - - 0.0
26/08:30am 6.3 3.0 0.2 65 2.7 WSW 7 20 4 11 - - 0.0
26/08:00am 5.7 2.4 0.1 67 2.4 SW 7 24 4 13 - - 0.0
26/07:30am 4.4 2.4 -0.4 71 2.0 CALM 0 7 0 4 - - 0.0
26/07:00am 2.4 -0.1 -0.7 80 1.3 W 2 7 1 4 - - 0.0
26/06:30am 0.7 -1.5 -1.7 84 1.0 CALM 0 2 0 1 - - 0.0
26/06:00am -2.1 -4.6 -4.1 86 0.6 CALM 0 4 0 2 - - 0.0
26/05:30am -2.2 -4.7 -3.9 88 0.5 CALM 0 2 0 1 - - 0.0
26/05:00am -2.2 -4.7 -4.1 87 0.6 CALM 0 0 0 0 - - 0.0
26/04:30am -2.3 -4.8 -4.3 86 0.6 CALM 0 0 0 0 - - 0.0
26/04:00am -1.4 -3.9 -4.1 82 0.9 CALM 0 0 0 0 - - 0.0
26/03:30am -1.1 -3.6 -4.1 80 1.0 CALM 0 2 0 1 - - 0.0
26/03:00am -0.7 -3.6 -4.2 77 1.2 WSW 2 6 1 3 - - 0.0
26/02:30am 0.9 -1.5 -3.4 73 1.7 CALM 0 0 0 0 - - 0.0
26/02:00am 2.0 -0.9 -3.9 65 2.3 NE 2 6 1 3 - - 0.0
26/01:30am 4.5 0.2 -4.5 52 3.4 NW 9 20 5 11 - - 0.0
26/01:00am 3.4 0.4 -1.9 68 2.1 WNW 4 11 2 6 - - 0.0
26/12:30am 3.1 0.5 0.7 84 1.0 NNW 4 15 2 8 - - 0.0
26/12:00am 3.3 0.6 0.0 79 1.4 N 4 13 2 7 - - 0.0
 
Date/Time
EDT
Temp
°C
App
Temp
°C
Dew
Point
Rel
Hum
%
Delta-T
°C
Wind Press
QNH
hPa
Press
MSL
hPa
Rain
since 9 am
mm
Dir
 
Spd
km/h
Gust
km/h
Spd
kts
Gust
kts
25/11:30pm 4.2 1.0 0.7 78 1.5 WNW 7 19 4 10 - - 0.0
25/11:00pm 4.4 0.5 0.9 78 1.5 W 11 22 6 12 - - 0.0
25/10:30pm 4.8 -0.2 1.1 77 1.6 W 17 30 9 16 - - 0.0
25/10:00pm 4.9 0.3 1.4 78 1.5 W 15 26 8 14 - - 0.0
25/09:30pm 4.2 2.0 1.1 80 1.4 SSW 2 7 1 4 - - 0.0
25/09:00pm 5.2 2.2 1.9 79 1.5 W 7 22 4 12 - - 0.0
25/08:30pm 5.4 2.9 1.7 77 1.7 - 4 - 2 - - - 0.0
25/08:00pm 5.9 2.9 1.8 75 1.8 NW 7 17 4 9 - - 0.0
25/07:30pm 6.4 4.3 1.7 72 2.1 WNW 2 7 1 4 - - 0.0
25/07:00pm 7.3 4.5 1.8 68 2.5 W 6 17 3 9 - - 0.0
25/06:30pm 8.7 5.3 1.8 62 3.2 W 9 19 5 10 - - 0.0
25/06:00pm 9.3 6.3 1.7 59 3.5 W 7 19 4 10 - - 0.0
25/05:30pm 9.3 5.8 1.5 58 3.6 W 9 22 5 12 - - 0.0
25/05:00pm 9.7 6.0 2.3 60 3.5 W 11 24 6 13 - - 0.0
25/04:30pm 9.7 5.1 1.6 57 3.8 W 15 32 8 17 - - 0.0
25/04:00pm 9.7 5.1 1.4 56 3.8 W 15 26 8 14 - - 0.0
25/03:30pm 10.4 6.1 1.2 53 4.3 WNW 13 26 7 14 - - 0.0
25/03:00pm 10.4 6.2 1.5 54 4.1 W 13 28 7 15 - - 0.0
25/02:30pm 9.4 4.3 0.6 54 4.0 W 17 30 9 16 - - 0.0
25/02:00pm 9.7 4.1 0.1 51 4.3 W 19 37 10 20 - - 0.0
25/01:30pm 9.7 4.1 0.1 51 4.3 W 19 33 10 18 - - 0.0
25/01:00pm 10.1 5.6 -0.1 49 4.6 WSW 13 41 7 22 - - 0.0
25/12:30pm 9.7 5.3 -2.6 42 5.2 W 11 32 6 17 - - 0.0
25/12:00pm 8.7 3.1 -3.2 43 4.9 W 17 41 9 22 - - 0.0
25/11:30am 9.8 6.1 -2.8 41 5.3 W 7 20 4 11 - - 0.0
25/11:00am 8.9 4.3 -3.9 40 5.2 W 11 30 6 16 - - 0.0
25/10:30am 9.1 5.5 -2.2 45 4.8 WSW 7 20 4 11 - - 0.0
25/10:00am 8.2 3.3 -6.7 34 5.6 WSW 11 32 6 17 - - 0.0
25/09:30am 7.3 1.5 -4.7 42 4.7 W 17 33 9 18 - - 0.0
25/09:00am 6.8 1.4 -7.9 34 5.3 WSW 13 32 7 17 - - 42.4
25/08:30am 5.7 0.1 -5.9 43 4.3 W 15 33 8 18 - - 42.4
25/08:00am 4.7 -2.3 -6.8 43 4.1 W 22 46 12 25 - - 42.4
25/07:30am 4.2 -2.1 -5.5 49 3.6 W 19 41 10 22 - - 42.4
25/07:00am 3.8 -2.4 -4.6 54 3.2 W 19 39 10 21 - - 42.4
25/06:30am 3.3 -2.7 -1.3 72 1.9 W 20 46 11 25 - - 42.4
25/06:00am 3.2 -2.6 0.1 80 1.3 W 20 44 11 24 - - 42.4
25/05:45am 3.7 -3.7 -0.7 73 1.8 W 28 61 15 33 - - 42.4
25/05:30am 3.8 -2.7 0.5 79 1.4 W 24 46 13 25 - - 42.4
25/05:00am 3.9 -1.5 1.4 84 1.1 W 19 41 10 22 - - 42.4
25/04:30am 4.5 -2.2 1.4 80 1.4 WNW 26 54 14 29 - - 42.4
25/04:00am 5.1 -1.2 1.6 78 1.6 WNW 24 50 13 27 - - 42.4
25/03:30am 6.0 0.6 2.3 77 1.7 W 20 52 11 28 - - 42.4
25/03:00am 6.9 1.0 3.7 80 1.5 WNW 24 44 13 24 - - 42.4
25/02:30am 7.9 2.7 5.4 84 1.2 W 22 46 12 25 - - 42.4
25/02:00am 8.6 3.2 8.2 97 0.2 W 26 48 14 26 - - 42.4
25/01:39am 9.2 2.7 8.9 98 0.2 WNW 33 59 18 32 - - 42.4
25/01:30am 9.5 5.5 9.2 98 0.2 WNW 20 50 11 27 - - 42.4
25/01:07am 9.6 4.1 9.3 98 0.2 WNW 28 54 15 29 - - 42.2
25/01:00am 9.6 4.9 9.3 98 0.2 W 24 50 13 27 - - 42.2
25/12:30am 9.4 3.9 9.1 98 0.2 WNW 28 48 15 26 - - 42.0
25/12:13am 9.3 3.8 9.0 98 0.2 WNW 28 59 15 32 - - 42.0
25/12:00am 9.1 4.7 8.8 98 0.2 WNW 22 46 12 25 - - 42.0
 
Date/Time
EDT
Temp
°C
App
Temp
°C
Dew
Point
Rel
Hum
%
Delta-T
°C
Wind Press
QNH
hPa
Press
MSL
hPa
Rain
since 9 am
mm
Dir
 
Spd
km/h
Gust
km/h
Spd
kts
Gust
kts
24/11:37pm 9.0 3.3 8.4 96 0.3 W 28 52 15 28 - - 42.0
24/11:30pm 9.1 3.7 8.2 94 0.5 W 26 46 14 25 - - 42.0
24/11:16pm 9.3 3.4 7.7 90 0.8 W 28 54 15 29 - - 42.0
24/11:00pm 9.5 5.2 7.1 85 1.3 W 19 44 10 24 - - 42.0
24/10:49pm 10.0 3.9 6.5 79 1.8 WNW 28 48 15 26 - - 42.0
24/10:30pm 9.5 6.3 6.9 84 1.4 WNW 13 24 7 13 - - 42.0
24/10:00pm 9.4 2.3 8.0 91 0.7 WNW 35 70 19 38 - - 37.0
24/09:36pm 10.5 3.2 8.8 89 0.9 WNW 37 61 20 33 - - 32.2
24/09:30pm 10.2 7.8 8.8 91 0.8 W 11 43 6 23 - - 29.6
24/09:00pm 10.2 5.4 8.8 91 0.8 W 24 50 13 27 - - 21.6
24/08:30pm 10.5 6.5 9.1 91 0.8 W 20 48 11 26 - - 16.6
24/08:00pm 10.2 5.7 8.5 89 0.9 W 22 44 12 24 - - 15.2
24/07:30pm 10.3 5.0 8.4 88 1.0 W 26 61 14 33 - - 14.0
24/07:25pm 10.4 3.7 8.2 86 1.2 W 33 61 18 33 - - 13.6
24/07:00pm 11.9 8.3 10.6 92 0.7 W 20 46 11 25 - - 10.4
24/06:30pm 12.1 7.9 9.8 86 1.3 W 22 44 12 24 - - 10.4
24/06:00pm 12.1 9.3 10.0 87 1.2 W 15 39 8 21 - - 10.4
24/05:30pm 12.1 10.5 10.2 88 1.1 W 9 37 5 20 - - 10.4
24/05:00pm 12.0 9.5 9.7 86 1.3 WNW 13 30 7 16 - - 10.4
24/04:30pm 11.9 10.6 10.0 88 1.1 NW 7 20 4 11 - - 10.4
24/04:00pm 11.6 7.8 9.9 89 1.0 W 20 39 11 21 - - 10.4
24/03:30pm 12.0 10.9 10.6 91 0.8 W 7 22 4 12 - - 10.4
24/03:00pm 11.7 9.1 10.6 93 0.6 W 15 32 8 17 - - 10.0
24/02:30pm 12.3 11.8 10.7 90 0.9 WNW 4 17 2 9 - - 9.0
24/02:17pm 12.2 7.2 10.9 92 0.7 W 28 50 15 27 - - 7.8
24/02:00pm 12.5 9.1 11.1 91 0.8 WNW 20 48 11 26 - - 6.2
24/01:30pm 12.8 10.4 11.4 91 0.8 W 15 37 8 20 - - 3.2
24/01:00pm 13.1 11.5 11.5 90 0.9 WNW 11 32 6 17 - - 0.4
24/12:33pm 14.4 9.4 10.8 79 2.1 W 28 50 15 27 - - 0.0
24/12:30pm 14.6 10.0 11.2 80 2.0 W 26 48 14 26 - - 0.0
24/12:13pm 13.3 8.2 10.7 84 1.5 W 28 50 15 27 - - 0.0
24/12:00pm 14.2 10.6 10.4 78 2.2 W 20 41 11 22 - - 0.0
24/11:30am 13.9 10.9 10.5 80 1.9 W 17 43 9 23 - - 0.0
24/11:00am 13.5 10.0 10.3 81 1.8 W 19 39 10 21 - - 0.0
24/10:30am 13.7 9.5 9.7 77 2.3 W 22 50 12 27 - - 0.0
24/10:00am 13.7 10.0 9.4 75 2.4 W 19 32 10 17 - - 0.0
24/09:30am 13.9 12.4 9.3 74 2.6 WNW 7 24 4 13 - - 0.0
24/09:00am 13.7 12.3 9.4 75 2.4 NW 7 22 4 12 - - 0.0
24/08:30am 13.6 12.3 9.3 75 2.4 N 6 15 3 8 - - 0.0
24/08:00am 13.8 11.9 9.0 73 2.7 NNW 9 26 5 14 - - 0.0
24/07:30am 13.8 11.9 9.0 73 2.7 NNW 9 32 5 17 - - 0.0
24/07:00am 13.7 12.0 8.5 71 2.9 W 7 24 4 13 - - 0.0
24/06:30am 13.4 11.6 7.2 66 3.3 W 6 17 3 9 - - 0.0
24/06:00am 13.1 11.2 6.9 66 3.3 NW 6 28 3 15 - - 0.0
24/05:30am 12.7 10.8 6.5 66 3.3 NNW 6 17 3 9 - - 0.0
24/05:00am 11.9 10.0 6.8 71 2.7 NNE 6 13 3 7 - - 0.0
24/04:30am 12.9 10.8 6.7 66 3.3 N 7 19 4 10 - - 0.0
24/04:00am 12.4 11.0 7.1 70 2.8 WSW 4 11 2 6 - - 0.0
24/03:30am 13.8 12.2 6.4 61 3.9 WNW 4 9 2 5 - - 0.0
24/03:00am 14.1 12.3 5.2 55 4.6 W 4 15 2 8 - - 0.0
24/02:30am 14.8 12.3 4.8 51 5.1 W 7 20 4 11 - - 0.0
24/02:00am 13.7 12.1 6.3 61 3.9 W 4 13 2 7 - - 0.0
24/01:30am 14.8 12.4 7.1 60 4.1 WNW 9 22 5 12 - - 0.0
24/01:00am 15.4 13.1 5.9 53 5.0 W 7 24 4 13 - - 0.0
24/12:30am 15.2 13.5 8.4 64 3.8 W 7 22 4 12 - - 0.0
24/12:00am 15.0 13.4 8.9 67 3.4 W 7 19 4 10 - - 0.0
 
Date/Time
EDT
Temp
°C
App
Temp
°C
Dew
Point
Rel
Hum
%
Delta-T
°C
Wind Press
QNH
hPa
Press
MSL
hPa
Rain
since 9 am
mm
Dir
 
Spd
km/h
Gust
km/h
Spd
kts
Gust
kts
23/11:30pm 14.8 13.3 8.5 66 3.5 W 6 15 3 8 - - 0.0
23/11:00pm 15.5 13.1 8.5 63 3.9 WNW 11 24 6 13 - - 0.0
23/10:30pm 16.3 13.5 8.5 60 4.4 WNW 13 32 7 17 - - 0.0
23/10:00pm 16.8 14.2 7.7 55 5.0 W 11 26 6 14 - - 0.0
23/09:30pm 17.5 14.0 7.3 51 5.6 WNW 15 33 8 18 - - 0.0
23/09:00pm 17.6 14.8 7.1 50 5.7 WNW 11 26 6 14 - - 0.0

Other Formats:

Comma delimited format used in spreadsheet applications
http://www.bom.gov.au/fwo/IDN60801/IDN60801.94915.axf

JavaScript Object Notation format (JSON) in row-major order
http://www.bom.gov.au/fwo/IDN60801/IDN60801.94915.json